Time;durP1;ratioP1;P1;durP2;ratioP2;P2;SDS_P1;SDS_P2;PMS_P1;PMS_P2;Temp;Humidity;BMP_temperature;BMP_pressure;BME280_temperature;BME280_humidity;BME280_pressure;Samples;Min_cycle;Max_cycle;Signal;HPM_P1;HPM_P2
2022/06/07 00:01:35;;;;;;;1.60;0.80;;;;;;;;;;4992187;28;20198;-54
2022/06/07 00:04:01;;;;;;;0.80;0.80;;;;;;;;;;4992450;28;20288;-53
2022/06/07 00:06:28;;;;;;;0.70;0.70;;;;;;;;;;4992313;28;20321;-52
2022/06/07 00:08:55;;;;;;;1.47;0.80;;;;;;;;;;4990548;28;20599;-53
2022/06/07 00:11:21;;;;;;;0.73;0.67;;;;;;;;;;4992519;28;20565;-53
2022/06/07 00:13:48;;;;;;;0.57;0.57;;;;;;;;;;4992370;28;20206;-53
2022/06/07 00:16:14;;;;;;;1.00;0.90;;;;;;;;;;4992152;28;20296;-52
2022/06/07 00:18:40;;;;;;;0.87;0.70;;;;;;;;;;4992419;28;20253;-50
2022/06/07 00:21:06;;;;;;;0.70;0.70;;;;;;;;;;4991976;28;20194;-54
2022/06/07 00:23:34;;;;;;;1.57;0.90;;;;;;;;;;4992094;28;20205;-53
2022/06/07 00:26:02;;;;;;;0.80;0.80;;;;;;;;;;4992046;28;20485;-51
2022/06/07 00:28:29;;;;;;;1.43;0.80;;;;;;;;;;4991890;28;20242;-53
2022/06/07 00:30:55;;;;;;;1.33;0.73;;;;;;;;;;4992230;28;20198;-51
2022/06/07 00:33:21;;;;;;;0.90;0.90;;;;;;;;;;4992220;28;20257;-53
2022/06/07 00:35:47;;;;;;;0.80;0.80;;;;;;;;;;4992225;28;20205;-53
2022/06/07 00:38:13;;;;;;;0.87;0.87;;;;;;;;;;4992112;28;20202;-53
2022/06/07 00:40:40;;;;;;;1.00;1.00;;;;;;;;;;4992008;28;20202;-51
2022/06/07 00:43:08;;;;;;;1.20;1.10;;;;;;;;;;4991901;28;20688;-51
2022/06/07 00:45:34;;;;;;;1.13;1.10;;;;;;;;;;4992256;28;20280;-52
2022/06/07 00:48:00;;;;;;;1.23;1.13;;;;;;;;;;4991860;28;20209;-51
2022/06/07 00:50:29;;;;;;;1.40;1.30;;;;;;;;;;4991977;28;20202;-48
2022/06/07 00:52:55;;;;;;;1.40;1.30;;;;;;;;;;4991780;28;20661;-51
2022/06/07 00:55:21;;;;;;;1.83;1.30;;;;;;;;;;4991630;28;20398;-51
2022/06/07 00:57:47;;;;;;;1.50;1.40;;;;;;;;;;4992050;28;20204;-53
2022/06/07 01:00:16;;;;;;;1.20;1.10;;;;;;;;;;4992659;28;20209;-53
2022/06/07 01:02:42;;;;;;;1.40;1.30;;;;;;;;;;4995833;28;20291;-52
2022/06/07 01:05:08;;;;;;;1.63;1.53;;;;;;;;;;4995913;28;20289;-52
2022/06/07 01:13:03;;;;;;;1.73;1.47;;;;;;;;;;4995908;28;20267;-53
2022/06/07 01:15:31;;;;;;;2.47;1.77;;;;;;;;;;4995488;28;20721;-52
2022/06/07 01:17:56;;;;;;;1.70;1.60;;;;;;;;;;4995707;28;20610;-53
2022/06/07 01:20:22;;;;;;;2.67;1.93;;;;;;;;;;4995434;28;20706;-53
2022/06/07 01:22:50;;;;;;;2.83;1.83;;;;;;;;;;4995451;28;20510;-53
2022/06/07 01:25:16;;;;;;;2.60;1.80;;;;;;;;;;4995288;28;20229;-53
2022/06/07 01:27:42;;;;;;;1.77;1.50;;;;;;;;;;4995370;28;20207;-53
2022/06/07 01:30:08;;;;;;;2.77;1.63;;;;;;;;;;4995322;28;20357;-52
2022/06/07 01:32:35;;;;;;;1.70;1.60;;;;;;;;;;4995418;28;20210;-51
2022/06/07 01:35:01;;;;;;;1.90;1.80;;;;;;;;;;4995267;28;20218;-52
2022/06/07 01:37:27;;;;;;;2.67;2.00;;;;;;;;;;4995327;28;20198;-51
2022/06/07 01:42:39;;;;;;;3.33;1.80;;;;;;;;;;4995144;28;20265;-51
2022/06/07 01:45:06;;;;;;;2.10;1.90;;;;;;;;;;4995226;28;20202;-52
2022/06/07 01:47:32;;;;;;;2.20;2.00;;;;;;;;;;4994791;28;20736;-52
2022/06/07 01:49:59;;;;;;;2.17;1.80;;;;;;;;;;4995064;28;20673;-54
2022/06/07 01:52:26;;;;;;;1.87;1.77;;;;;;;;;;4994973;28;20282;-53
2022/06/07 01:54:52;;;;;;;2.20;1.83;;;;;;;;;;4994791;28;20249;-51
2022/06/07 01:57:20;;;;;;;2.30;2.10;;;;;;;;;;4994795;28;20195;-51
2022/06/07 01:59:46;;;;;;;2.10;2.00;;;;;;;;;;4994850;28;20679;-52
2022/06/07 02:02:13;;;;;;;2.30;2.10;;;;;;;;;;4994557;28;20661;-52
2022/06/07 02:04:40;;;;;;;2.20;2.00;;;;;;;;;;4995064;28;20198;-53
2022/06/07 02:07:06;;;;;;;2.40;1.90;;;;;;;;;;4994634;28;20316;-53
2022/06/07 02:09:33;;;;;;;2.37;1.97;;;;;;;;;;4994485;28;20249;-53
2022/06/07 02:11:59;;;;;;;1.83;1.60;;;;;;;;;;4994696;28;20210;-53
2022/06/07 02:14:27;;;;;;;1.60;1.50;;;;;;;;;;4994444;28;20202;-53
2022/06/07 02:16:53;;;;;;;2.57;1.90;;;;;;;;;;4994626;28;20310;-51
2022/06/07 02:19:19;;;;;;;2.13;1.83;;;;;;;;;;4994319;28;20684;-51
2022/06/07 02:21:45;;;;;;;1.60;1.47;;;;;;;;;;4994433;28;20205;-52
2022/06/07 02:24:11;;;;;;;2.33;1.80;;;;;;;;;;4994530;28;20198;-52
2022/06/07 02:26:41;;;;;;;2.77;1.93;;;;;;;;;;4994235;28;20701;-52
2022/06/07 02:29:09;;;;;;;1.80;1.70;;;;;;;;;;4994124;28;20589;-52
2022/06/07 02:31:37;;;;;;;3.33;1.70;;;;;;;;;;4994143;28;20206;-53
2022/06/07 02:34:04;;;;;;;2.90;1.60;;;;;;;;;;4994199;28;20206;-52
2022/06/07 02:36:31;;;;;;;2.80;2.00;;;;;;;;;;4994089;28;20285;-52
2022/06/07 02:38:57;;;;;;;2.30;2.10;;;;;;;;;;4994370;28;20202;-52
2022/06/07 02:41:24;;;;;;;2.07;1.97;;;;;;;;;;4994060;28;20298;-52
2022/06/07 02:43:50;;;;;;;2.90;1.93;;;;;;;;;;4994183;28;20230;-52
2022/06/07 02:46:16;;;;;;;3.87;1.90;;;;;;;;;;4993949;28;20667;-52
2022/06/07 02:48:43;;;;;;;2.87;2.10;;;;;;;;;;4993797;28;20205;-52
2022/06/07 02:51:09;;;;;;;2.80;1.93;;;;;;;;;;4994013;28;20194;-52
2022/06/07 02:53:35;;;;;;;2.53;2.00;;;;;;;;;;4993807;28;20206;-51
2022/06/07 02:56:01;;;;;;;2.73;2.10;;;;;;;;;;4993841;28;20202;-52
2022/06/07 02:58:27;;;;;;;4.23;2.40;;;;;;;;;;4993936;28;20236;-52
2022/06/07 03:00:55;;;;;;;3.73;2.50;;;;;;;;;;4993696;28;20214;-52
2022/06/07 03:03:21;;;;;;;3.00;2.40;;;;;;;;;;4993465;28;20694;-53
2022/06/07 03:05:49;;;;;;;3.00;2.60;;;;;;;;;;4993707;28;20305;-52
2022/06/07 03:08:18;;;;;;;2.70;2.30;;;;;;;;;;4993604;28;20432;-52
2022/06/07 03:10:44;;;;;;;4.43;2.77;;;;;;;;;;4993551;28;20186;-52
2022/06/07 03:13:10;;;;;;;3.77;3.00;;;;;;;;;;4993496;28;20612;-51
2022/06/07 03:15:36;;;;;;;3.23;2.90;;;;;;;;;;4993333;28;20599;-51
2022/06/07 03:18:04;;;;;;;4.67;3.03;;;;;;;;;;4993341;28;20212;-52
2022/06/07 03:20:30;;;;;;;3.93;3.17;;;;;;;;;;4993314;28;20220;-51
2022/06/07 03:22:57;;;;;;;5.23;3.50;;;;;;;;;;4992633;28;20658;-50
2022/06/07 03:25:24;;;;;;;5.10;3.50;;;;;;;;;;4993299;28;20231;-50
2022/06/07 03:27:51;;;;;;;3.97;3.53;;;;;;;;;;4992861;28;20210;-51
2022/06/07 03:30:17;;;;;;;4.07;3.50;;;;;;;;;;4993232;28;20217;-51
2022/06/07 03:32:43;;;;;;;3.40;3.10;;;;;;;;;;4993080;28;20221;-51
2022/06/07 03:35:10;;;;;;;6.07;3.80;;;;;;;;;;4992990;28;20260;-53
2022/06/07 03:37:36;;;;;;;4.87;3.63;;;;;;;;;;4992984;28;20209;-51
2022/06/07 03:40:04;;;;;;;5.87;4.13;;;;;;;;;;4992738;28;20201;-51
2022/06/07 03:42:30;;;;;;;6.67;4.00;;;;;;;;;;4992714;28;20216;-52
2022/06/07 03:44:56;;;;;;;6.53;3.83;;;;;;;;;;4992938;28;20631;-51
2022/06/07 03:47:22;;;;;;;5.07;4.07;;;;;;;;;;4992538;28;20218;-52
2022/06/07 03:49:48;;;;;;;4.93;4.10;;;;;;;;;;4992750;28;20240;-53
2022/06/07 03:52:14;;;;;;;5.30;4.00;;;;;;;;;;4992755;28;20202;-53
2022/06/07 03:54:40;;;;;;;5.53;4.73;;;;;;;;;;4992869;28;20285;-52
2022/06/07 03:57:08;;;;;;;6.53;4.10;;;;;;;;;;4992854;28;20203;-52
2022/06/07 03:59:34;;;;;;;7.23;5.00;;;;;;;;;;4992387;28;20199;-53
2022/06/07 04:02:01;;;;;;;5.03;4.00;;;;;;;;;;4992654;28;20206;-52
2022/06/07 04:04:27;;;;;;;7.30;4.80;;;;;;;;;;4992664;28;20206;-52
2022/06/07 04:09:41;;;;;;;6.43;3.93;;;;;;;;;;4992671;28;20214;-51
2022/06/07 04:12:09;;;;;;;5.07;4.13;;;;;;;;;;4992578;28;20282;-52
2022/06/07 04:14:36;;;;;;;4.97;4.47;;;;;;;;;;4992350;28;20202;-53
2022/06/07 04:17:02;;;;;;;8.17;5.03;;;;;;;;;;4992434;28;20648;-52
2022/06/07 04:19:28;;;;;;;6.40;4.77;;;;;;;;;;4992267;28;20212;-52
2022/06/07 04:21:54;;;;;;;4.87;4.30;;;;;;;;;;4992258;28;20206;-51
2022/06/07 04:24:20;;;;;;;6.13;4.40;;;;;;;;;;4992330;28;20201;-52
2022/06/07 04:26:47;;;;;;;4.77;4.37;;;;;;;;;;4991888;28;20320;-52
2022/06/07 04:29:15;;;;;;;5.87;4.43;;;;;;;;;;4991954;28;20245;-52
2022/06/07 04:31:41;;;;;;;5.13;4.27;;;;;;;;;;4992237;28;20409;-52
2022/06/07 04:34:07;;;;;;;5.13;4.50;;;;;;;;;;4991503;28;20657;-55
2022/06/07 04:36:33;;;;;;;5.70;3.97;;;;;;;;;;4991533;28;20209;-50
2022/06/07 04:39:01;;;;;;;5.27;4.33;;;;;;;;;;4992024;28;20213;-52
2022/06/07 04:41:27;;;;;;;4.77;3.80;;;;;;;;;;4991894;28;20640;-51
2022/06/07 04:43:53;;;;;;;6.03;4.00;;;;;;;;;;4992138;28;20675;-52
2022/06/07 04:46:21;;;;;;;5.93;3.63;;;;;;;;;;4991715;28;20252;-53
2022/06/07 04:48:48;;;;;;;5.30;3.47;;;;;;;;;;4991706;28;20206;-52
2022/06/07 04:51:15;;;;;;;5.40;3.70;;;;;;;;;;4992205;28;20202;-52
2022/06/07 04:53:41;;;;;;;4.90;3.77;;;;;;;;;;4991669;28;20287;-50
2022/06/07 04:56:08;;;;;;;6.07;3.57;;;;;;;;;;4992010;28;20273;-52
2022/06/07 04:58:34;;;;;;;4.27;3.20;;;;;;;;;;4991764;28;20190;-52
2022/06/07 05:01:00;;;;;;;4.77;3.20;;;;;;;;;;4991950;28;20457;-51
2022/06/07 05:03:27;;;;;;;5.03;3.10;;;;;;;;;;4991858;28;20668;-52
2022/06/07 05:05:53;;;;;;;3.20;2.90;;;;;;;;;;4991580;28;20202;-52
2022/06/07 05:08:19;;;;;;;2.63;2.30;;;;;;;;;;4992000;28;20213;-52
2022/06/07 05:10:45;;;;;;;4.03;3.10;;;;;;;;;;4992014;28;20202;-52
2022/06/07 05:13:11;;;;;;;3.77;2.97;;;;;;;;;;4991626;28;20296;-53
2022/06/07 05:15:37;;;;;;;6.03;2.53;;;;;;;;;;4991741;28;20202;-52
2022/06/07 05:18:03;;;;;;;2.90;2.60;;;;;;;;;;4991577;28;20679;-51
2022/06/07 05:20:31;;;;;;;3.93;2.70;;;;;;;;;;4991711;28;20202;-52
2022/06/07 05:22:57;;;;;;;3.70;2.67;;;;;;;;;;4991786;28;20213;-52
2022/06/07 05:25:22;;;;;;;4.50;2.57;;;;;;;;;;4991534;28;20218;-52
2022/06/07 05:27:50;;;;;;;3.53;2.70;;;;;;;;;;4991504;28;21361;-52
2022/06/07 05:30:16;;;;;;;2.50;2.30;;;;;;;;;;4952877;28;20254;-51
2022/06/07 05:32:42;;;;;;;4.03;2.33;;;;;;;;;;4952658;28;20235;-52
2022/06/07 05:35:09;;;;;;;4.10;2.60;;;;;;;;;;4952923;28;20203;-52
2022/06/07 05:37:36;;;;;;;5.27;2.43;;;;;;;;;;4952670;28;20238;-51
2022/06/07 05:40:03;;;;;;;4.27;2.20;;;;;;;;;;4952851;28;20215;-52
2022/06/07 05:42:29;;;;;;;2.60;2.20;;;;;;;;;;4952845;28;20591;-51
2022/06/07 05:44:57;;;;;;;3.77;2.10;;;;;;;;;;4952918;28;20204;-51
2022/06/07 05:47:23;;;;;;;4.47;2.20;;;;;;;;;;4955349;28;20262;-52
2022/06/07 05:49:49;;;;;;;3.67;2.13;;;;;;;;;;4956039;28;20211;-51
2022/06/07 05:52:15;;;;;;;3.83;2.20;;;;;;;;;;4956148;28;20203;-51
2022/06/07 05:54:42;;;;;;;3.27;1.90;;;;;;;;;;4955930;28;20663;-50
2022/06/07 05:57:10;;;;;;;3.27;2.00;;;;;;;;;;4956088;28;20203;-52
2022/06/07 05:59:36;;;;;;;2.13;1.93;;;;;;;;;;4956059;28;20577;-52
2022/06/07 06:02:02;;;;;;;2.50;2.00;;;;;;;;;;4955815;28;20200;-52
2022/06/07 06:04:28;;;;;;;4.93;2.00;;;;;;;;;;4955916;28;20411;-53
2022/06/07 06:06:55;;;;;;;2.57;2.07;;;;;;;;;;4955671;28;20302;-51
2022/06/07 06:12:07;;;;;;;5.00;2.17;;;;;;;;;;4955563;29;20735;-53
2022/06/07 06:14:33;;;;;;;3.43;2.03;;;;;;;;;;4955762;28;20203;-53
2022/06/07 06:16:59;;;;;;;4.30;2.10;;;;;;;;;;4955455;28;20291;-52
2022/06/07 06:19:25;;;;;;;4.73;1.90;;;;;;;;;;4955672;28;20572;-53
2022/06/07 06:21:51;;;;;;;4.33;2.30;;;;;;;;;;4955599;28;20199;-52
2022/06/07 06:24:20;;;;;;;5.77;2.30;;;;;;;;;;4955490;28;20748;-53
2022/06/07 06:26:46;;;;;;;4.40;2.33;;;;;;;;;;4955253;28;20231;-52
2022/06/07 06:29:13;;;;;;;4.80;2.10;;;;;;;;;;4977326;28;20267;-52
2022/06/07 06:31:40;;;;;;;2.97;1.90;;;;;;;;;;4994091;28;20199;-53
2022/06/07 06:34:06;;;;;;;5.10;2.10;;;;;;;;;;4994367;28;20230;-52
2022/06/07 06:36:32;;;;;;;3.77;1.97;;;;;;;;;;4993981;28;20626;-52
2022/06/07 06:38:59;;;;;;;6.00;2.10;;;;;;;;;;4994143;28;20541;-52
2022/06/07 06:41:26;;;;;;;3.90;2.00;;;;;;;;;;4994189;28;20258;-52
2022/06/07 06:43:52;;;;;;;2.97;2.30;;;;;;;;;;4993916;28;20224;-53
2022/06/07 06:46:20;;;;;;;5.73;2.33;;;;;;;;;;4994018;28;20627;-51
2022/06/07 06:48:46;;;;;;;5.33;2.30;;;;;;;;;;4993941;28;20237;-51
2022/06/07 06:51:14;;;;;;;3.43;2.20;;;;;;;;;;4993864;28;20210;-52
2022/06/07 06:53:44;;;;;;;3.53;2.30;;;;;;;;;;4993878;28;20611;-52
2022/06/07 06:56:11;;;;;;;3.97;2.23;;;;;;;;;;4994060;28;20198;-53
2022/06/07 06:58:37;;;;;;;3.03;2.10;;;;;;;;;;4992691;28;20722;-51
2022/06/07 07:01:04;;;;;;;2.50;2.30;;;;;;;;;;4993851;28;20217;-52
2022/06/07 07:03:33;;;;;;;2.13;1.80;;;;;;;;;;4993770;28;20204;-53
2022/06/07 07:05:59;;;;;;;4.60;2.70;;;;;;;;;;4993372;28;20587;-51
2022/06/07 07:08:26;;;;;;;4.97;2.53;;;;;;;;;;4993642;28;20544;-52
2022/06/07 07:11:02;;;;;;;3.70;2.20;;;;;;;;;;4993478;28;20676;-51
2022/06/07 07:13:29;;;;;;;3.87;2.60;;;;;;;;;;4993741;28;20244;-52
2022/06/07 07:15:55;;;;;;;3.77;2.33;;;;;;;;;;4993384;28;20236;-50
2022/06/07 07:18:21;;;;;;;2.87;2.33;;;;;;;;;;4993384;28;20213;-55
2022/06/07 07:20:48;;;;;;;3.50;2.50;;;;;;;;;;4993369;28;20206;-53
2022/06/07 07:23:16;;;;;;;5.07;2.40;;;;;;;;;;4993432;28;20210;-52
2022/06/07 07:25:42;;;;;;;2.73;1.90;;;;;;;;;;4993470;28;20234;-54
2022/06/07 07:28:08;;;;;;;3.27;1.90;;;;;;;;;;4993011;28;20222;-52
2022/06/07 07:30:34;;;;;;;3.87;1.97;;;;;;;;;;4993330;28;20206;-53
2022/06/07 07:33:00;;;;;;;2.10;1.70;;;;;;;;;;4993083;28;20199;-52
2022/06/07 07:35:26;;;;;;;2.47;2.00;;;;;;;;;;4993013;28;20257;-52
2022/06/07 07:37:53;;;;;;;7.63;1.90;;;;;;;;;;4993229;28;20198;-52
2022/06/07 07:40:19;;;;;;;4.00;1.77;;;;;;;;;;4993029;28;20318;-52
2022/06/07 07:42:46;;;;;;;4.37;1.70;;;;;;;;;;4992879;28;20590;-54
2022/06/07 07:45:12;;;;;;;2.67;1.90;;;;;;;;;;4993047;28;20681;-53
2022/06/07 07:47:38;;;;;;;2.37;1.73;;;;;;;;;;4992694;28;20290;-53
2022/06/07 07:50:05;;;;;;;1.73;1.50;;;;;;;;;;4993419;28;20570;-54
2022/06/07 07:52:31;;;;;;;4.10;1.97;;;;;;;;;;4992937;28;20213;-53
2022/06/07 07:54:58;;;;;;;5.33;2.10;;;;;;;;;;4992655;28;20677;-53
2022/06/07 07:57:24;;;;;;;4.43;1.90;;;;;;;;;;4993050;28;20199;-53
2022/06/07 07:59:50;;;;;;;4.53;2.23;;;;;;;;;;4992763;28;20202;-53
2022/06/07 08:02:17;;;;;;;3.20;2.20;;;;;;;;;;4992847;28;20202;-53
2022/06/07 08:04:43;;;;;;;2.73;1.90;;;;;;;;;;4992546;28;20209;-53
2022/06/07 08:07:09;;;;;;;2.77;2.10;;;;;;;;;;4992544;28;20233;-53
2022/06/07 08:09:35;;;;;;;4.73;2.10;;;;;;;;;;4992627;28;20205;-53
2022/06/07 08:12:05;;;;;;;6.70;2.07;;;;;;;;;;4992545;28;20202;-54
2022/06/07 08:14:32;;;;;;;5.67;2.20;;;;;;;;;;4992611;28;20743;-54
2022/06/07 08:16:58;;;;;;;4.47;2.37;;;;;;;;;;4992540;28;20190;-54
2022/06/07 08:19:24;;;;;;;4.33;2.40;;;;;;;;;;4992389;28;20194;-54
2022/06/07 08:21:50;;;;;;;4.20;2.47;;;;;;;;;;4992347;28;20209;-53
2022/06/07 08:24:17;;;;;;;3.00;2.50;;;;;;;;;;4992428;28;20213;-54
2022/06/07 08:26:46;;;;;;;4.77;2.77;;;;;;;;;;4992267;28;20230;-54
2022/06/07 08:29:13;;;;;;;4.83;2.90;;;;;;;;;;4992061;28;20605;-53
2022/06/07 08:31:39;;;;;;;5.23;3.30;;;;;;;;;;4992440;28;20616;-54
2022/06/07 08:39:36;;;;;;;5.10;3.07;;;;;;;;;;4992507;28;20202;-54
2022/06/07 08:42:04;;;;;;;5.73;3.00;;;;;;;;;;4992184;28;20213;-54
2022/06/07 08:44:36;;;;;;;3.57;2.77;;;;;;;;;;4992359;28;20198;-55
2022/06/07 08:47:06;;;;;;;4.87;2.40;;;;;;;;;;4992115;28;20728;-54
2022/06/07 08:49:32;;;;;;;4.73;3.20;;;;;;;;;;4992205;28;20203;-55
2022/06/07 08:52:00;;;;;;;4.70;2.80;;;;;;;;;;4991333;28;20670;-54
2022/06/07 08:54:27;;;;;;;4.20;2.93;;;;;;;;;;4992141;28;20203;-54
2022/06/07 08:56:53;;;;;;;4.23;2.73;;;;;;;;;;4992040;28;20203;-54
2022/06/07 08:59:21;;;;;;;6.57;2.80;;;;;;;;;;4991871;28;20195;-54
2022/06/07 09:01:59;;;;;;;4.77;2.80;;;;;;;;;;4991849;28;20208;-53
2022/06/07 09:04:26;;;;;;;4.87;2.60;;;;;;;;;;4991863;28;20206;-54
2022/06/07 09:06:56;;;;;;;3.80;3.00;;;;;;;;;;4991756;28;20697;-53
2022/06/07 09:09:22;;;;;;;3.50;2.83;;;;;;;;;;4992008;28;20208;-53
2022/06/07 09:14:35;;;;;;;3.90;2.67;;;;;;;;;;4991847;28;20734;-54
2022/06/07 09:17:05;;;;;;;3.67;2.37;;;;;;;;;;4991698;28;20731;-53
2022/06/07 09:19:32;;;;;;;8.43;2.50;;;;;;;;;;4991855;28;20201;-54
2022/06/07 09:22:00;;;;;;;4.73;2.77;;;;;;;;;;4993928;28;20197;-53
2022/06/07 09:24:31;;;;;;;3.73;2.77;;;;;;;;;;4994305;28;20198;-54
2022/06/07 09:27:05;;;;;;;4.47;2.30;;;;;;;;;;4995590;28;20596;-54
2022/06/07 09:29:34;;;;;;;3.67;2.43;;;;;;;;;;4995676;28;20260;-54
2022/06/07 09:32:00;;;;;;;4.77;2.60;;;;;;;;;;4995463;28;20253;-55
2022/06/07 09:34:29;;;;;;;3.67;2.40;;;;;;;;;;4995374;28;20202;-55
2022/06/07 09:36:57;;;;;;;3.10;2.30;;;;;;;;;;4995463;28;20206;-54
2022/06/07 09:39:26;;;;;;;6.00;2.80;;;;;;;;;;4995372;28;20672;-54
2022/06/07 09:41:54;;;;;;;2.70;2.10;;;;;;;;;;4995283;28;20738;-53
2022/06/07 09:44:23;;;;;;;2.73;2.17;;;;;;;;;;4995495;28;20212;-54
2022/06/07 09:46:50;;;;;;;3.50;2.40;;;;;;;;;;4995071;28;20693;-54
2022/06/07 09:49:28;;;;;;;4.10;2.57;;;;;;;;;;4995532;28;20194;-53
2022/06/07 09:51:54;;;;;;;3.50;2.27;;;;;;;;;;4995320;28;20775;-53
2022/06/07 09:54:22;;;;;;;3.83;2.13;;;;;;;;;;4995070;28;20657;-53
2022/06/07 09:56:53;;;;;;;3.03;2.00;;;;;;;;;;4995228;28;20198;-54
2022/06/07 09:59:28;;;;;;;4.73;2.50;;;;;;;;;;4994719;28;20273;-53
2022/06/07 10:01:55;;;;;;;3.37;2.37;;;;;;;;;;4994876;28;20213;-53
2022/06/07 10:04:26;;;;;;;4.73;2.37;;;;;;;;;;4995078;28;20202;-53
2022/06/07 10:06:55;;;;;;;2.50;2.30;;;;;;;;;;4994770;28;20222;-53
2022/06/07 10:09:31;;;;;;;3.13;2.37;;;;;;;;;;4994642;28;20348;-54
2022/06/07 10:12:02;;;;;;;2.40;2.20;;;;;;;;;;4994826;28;20204;-54
2022/06/07 10:14:32;;;;;;;2.57;2.20;;;;;;;;;;4994910;28;20209;-54
2022/06/07 10:17:03;;;;;;;2.97;2.30;;;;;;;;;;4994531;28;20198;-54
2022/06/07 10:19:38;;;;;;;4.73;2.90;;;;;;;;;;4994588;28;20206;-54
2022/06/07 10:22:26;;;;;;;4.00;3.07;;;;;;;;;;4994536;28;20271;-54
2022/06/07 10:24:56;;;;;;;5.67;2.33;;;;;;;;;;4994627;28;20570;-54
2022/06/07 10:27:23;;;;;;;3.67;2.40;;;;;;;;;;4994442;28;20285;-54
2022/06/07 10:30:04;;;;;;;3.27;2.50;;;;;;;;;;4994560;28;20712;-54
2022/06/07 10:32:36;;;;;;;3.60;2.87;;;;;;;;;;4990289;28;20216;-54
2022/06/07 10:35:05;;;;;;;3.60;2.23;;;;;;;;;;4994493;28;20220;-53
2022/06/07 10:37:39;;;;;;;4.40;2.17;;;;;;;;;;4994637;28;20198;-53
2022/06/07 10:40:11;;;;;;;5.00;2.20;;;;;;;;;;4994597;28;20206;-54
2022/06/07 10:42:41;;;;;;;3.13;2.00;;;;;;;;;;4994241;28;20218;-53
2022/06/07 10:45:12;;;;;;;2.80;2.00;;;;;;;;;;4994138;28;20229;-54
2022/06/07 10:47:41;;;;;;;2.20;2.00;;;;;;;;;;4984779;28;20246;-54
2022/06/07 10:50:18;;;;;;;3.47;2.40;;;;;;;;;;4987978;28;20293;-53
2022/06/07 10:52:48;;;;;;;2.97;2.30;;;;;;;;;;4972200;28;20195;-53
2022/06/07 10:55:24;;;;;;;3.50;2.00;;;;;;;;;;4955060;29;20211;-54
2022/06/07 10:57:57;;;;;;;2.90;2.00;;;;;;;;;;4955406;29;20250;-54
2022/06/07 11:00:30;;;;;;;3.03;2.50;;;;;;;;;;4955200;28;20215;-54
2022/06/07 11:03:00;;;;;;;2.90;2.10;;;;;;;;;;4955162;28;20199;-54
2022/06/07 11:11:03;;;;;;;6.43;2.20;;;;;;;;;;4955015;29;20207;-54
2022/06/07 11:13:32;;;;;;;3.30;2.27;;;;;;;;;;4954812;29;20199;-54
2022/06/07 11:16:00;;;;;;;3.03;2.47;;;;;;;;;;4954843;29;20199;-54
2022/06/07 11:18:27;;;;;;;6.50;2.40;;;;;;;;;;4954917;28;20196;-54
2022/06/07 11:21:09;;;;;;;2.60;2.40;;;;;;;;;;4954780;29;20206;-54
2022/06/07 11:23:38;;;;;;;3.87;2.60;;;;;;;;;;4954504;29;20722;-55
2022/06/07 11:26:06;;;;;;;2.60;2.30;;;;;;;;;;4954260;29;20745;-54
2022/06/07 11:28:34;;;;;;;4.30;2.77;;;;;;;;;;4953300;28;20773;-54
2022/06/07 11:31:01;;;;;;;3.73;2.40;;;;;;;;;;4954642;29;20682;-54
2022/06/07 11:33:30;;;;;;;2.77;2.57;;;;;;;;;;4954360;28;20698;-55
2022/06/07 11:36:04;;;;;;;3.73;2.17;;;;;;;;;;4954470;29;20724;-55
2022/06/07 11:38:33;;;;;;;3.40;2.10;;;;;;;;;;4954594;29;20234;-56
2022/06/07 11:44:04;;;;;;;3.63;2.27;;;;;;;;;;4954059;28;20254;-55
2022/06/07 11:46:38;;;;;;;2.43;2.10;;;;;;;;;;4953859;28;20750;-55
2022/06/07 11:49:22;;;;;;;3.43;2.20;;;;;;;;;;4954207;29;20211;-55
2022/06/07 11:51:53;;;;;;;3.00;2.63;;;;;;;;;;4954140;29;20655;-55
2022/06/07 11:54:23;;;;;;;3.40;2.30;;;;;;;;;;4954259;28;20263;-55
2022/06/07 11:56:51;;;;;;;3.20;2.90;;;;;;;;;;4954331;29;20200;-55
2022/06/07 11:59:34;;;;;;;3.03;2.80;;;;;;;;;;4953902;28;20286;-55
2022/06/07 12:02:19;;;;;;;4.00;2.90;;;;;;;;;;4953876;29;20253;-55
2022/06/07 12:04:57;;;;;;;3.10;2.70;;;;;;;;;;4954163;29;20199;-55
2022/06/07 12:07:30;;;;;;;3.90;2.77;;;;;;;;;;4953679;28;20227;-55
2022/06/07 12:09:56;;;;;;;3.20;2.90;;;;;;;;;;4954041;29;20287;-55
2022/06/07 12:12:24;;;;;;;4.07;3.40;;;;;;;;;;4953734;28;20196;-55
2022/06/07 12:14:54;;;;;;;4.00;3.20;;;;;;;;;;4953846;29;20204;-55
2022/06/07 12:17:24;;;;;;;3.83;3.00;;;;;;;;;;4953394;28;20313;-55
2022/06/07 12:19:51;;;;;;;3.37;3.03;;;;;;;;;;4954004;28;20218;-55
2022/06/07 12:22:19;;;;;;;4.93;3.10;;;;;;;;;;4953841;28;20229;-55
2022/06/07 12:24:47;;;;;;;4.40;3.40;;;;;;;;;;4953825;28;20323;-55
2022/06/07 12:27:20;;;;;;;3.80;3.07;;;;;;;;;;4953463;28;20227;-54
2022/06/07 12:29:47;;;;;;;3.97;3.27;;;;;;;;;;4953156;28;20243;-55
2022/06/07 12:32:16;;;;;;;3.37;2.90;;;;;;;;;;4951331;29;20258;-54
2022/06/07 12:34:42;;;;;;;3.70;3.27;;;;;;;;;;4952840;29;20209;-54
2022/06/07 12:37:17;;;;;;;4.40;3.30;;;;;;;;;;4953085;29;20195;-55
2022/06/07 12:39:45;;;;;;;4.03;3.00;;;;;;;;;;4953626;29;20203;-53
2022/06/07 12:42:14;;;;;;;4.00;3.20;;;;;;;;;;4953663;29;20221;-53
2022/06/07 12:44:42;;;;;;;3.97;3.07;;;;;;;;;;4953766;28;20207;-53
2022/06/07 12:47:20;;;;;;;5.07;2.60;;;;;;;;;;4953241;28;20230;-53
2022/06/07 12:49:47;;;;;;;4.17;3.43;;;;;;;;;;4953665;29;20198;-53
2022/06/07 12:52:14;;;;;;;5.73;3.43;;;;;;;;;;4953190;29;20705;-54
2022/06/07 12:54:40;;;;;;;4.10;3.20;;;;;;;;;;4953600;29;20200;-54
2022/06/07 12:57:16;;;;;;;5.40;3.00;;;;;;;;;;4952702;29;20203;-53
2022/06/07 12:59:50;;;;;;;4.90;3.10;;;;;;;;;;4953657;29;20257;-54
2022/06/07 13:02:17;;;;;;;2.90;2.60;;;;;;;;;;4953358;28;20200;-54
2022/06/07 13:04:45;;;;;;;4.07;2.73;;;;;;;;;;4953377;29;20199;-53
2022/06/07 13:07:17;;;;;;;4.00;3.27;;;;;;;;;;4953013;29;20247;-53
2022/06/07 13:09:45;;;;;;;2.60;2.40;;;;;;;;;;4953402;29;20445;-54
2022/06/07 13:12:16;;;;;;;4.43;2.97;;;;;;;;;;4953100;28;20203;-54
2022/06/07 13:14:42;;;;;;;3.83;2.93;;;;;;;;;;4953256;29;20207;-54
2022/06/07 13:17:11;;;;;;;3.47;2.93;;;;;;;;;;4953053;29;20207;-54
2022/06/07 13:19:41;;;;;;;3.67;2.97;;;;;;;;;;4953127;29;20199;-54
2022/06/07 13:22:13;;;;;;;3.83;3.00;;;;;;;;;;4953159;29;20296;-54
2022/06/07 13:24:42;;;;;;;3.13;2.83;;;;;;;;;;4953415;28;20200;-53
2022/06/07 13:27:27;;;;;;;3.57;3.20;;;;;;;;;;4952969;29;20315;-54
2022/06/07 13:29:53;;;;;;;3.47;3.17;;;;;;;;;;4952907;28;20234;-54
2022/06/07 13:32:20;;;;;;;3.50;3.03;;;;;;;;;;4953111;29;20207;-53
2022/06/07 13:34:52;;;;;;;4.37;3.33;;;;;;;;;;4953064;29;20204;-53
2022/06/07 13:37:19;;;;;;;3.63;3.23;;;;;;;;;;4953026;28;20206;-54
2022/06/07 13:40:01;;;;;;;5.27;3.40;;;;;;;;;;4953126;29;20207;-54
2022/06/07 13:42:29;;;;;;;3.63;3.30;;;;;;;;;;4952989;28;20713;-54
2022/06/07 13:44:57;;;;;;;4.53;3.50;;;;;;;;;;4952901;29;20207;-53
2022/06/07 13:47:29;;;;;;;4.00;3.60;;;;;;;;;;4952793;29;20223;-53
2022/06/07 13:55:46;;;;;;;4.93;4.00;;;;;;;;;;4952925;29;20250;-54
2022/06/07 13:58:12;;;;;;;3.50;3.20;;;;;;;;;;4952723;28;20203;-54
2022/06/07 14:00:38;;;;;;;3.87;3.40;;;;;;;;;;4952968;29;20290;-54
2022/06/07 14:03:14;;;;;;;4.30;3.20;;;;;;;;;;4952846;29;20241;-54
2022/06/07 14:05:40;;;;;;;3.77;2.90;;;;;;;;;;4952985;29;20195;-53
2022/06/07 14:08:12;;;;;;;4.27;3.93;;;;;;;;;;4954682;28;20568;-53
2022/06/07 14:10:38;;;;;;;3.53;3.23;;;;;;;;;;4956401;29;20242;-54
2022/06/07 14:13:05;;;;;;;3.20;2.90;;;;;;;;;;4956402;29;20276;-54
2022/06/07 14:15:32;;;;;;;5.30;3.00;;;;;;;;;;4955961;29;20243;-54
2022/06/07 14:17:59;;;;;;;3.03;2.60;;;;;;;;;;4956059;28;20199;-54
2022/06/07 14:20:25;;;;;;;3.67;3.30;;;;;;;;;;4955903;28;20812;-54
2022/06/07 14:22:53;;;;;;;3.70;3.40;;;;;;;;;;4955851;29;20196;-54
2022/06/07 14:25:23;;;;;;;4.90;3.40;;;;;;;;;;4955866;28;20226;-54
2022/06/07 14:27:49;;;;;;;3.60;3.30;;;;;;;;;;4955954;28;20228;-54
2022/06/07 14:30:16;;;;;;;3.57;3.27;;;;;;;;;;4955443;29;20618;-54
2022/06/07 14:32:44;;;;;;;4.40;3.80;;;;;;;;;;4955750;29;20295;-54
2022/06/07 14:35:14;;;;;;;5.03;3.67;;;;;;;;;;4955763;29;20228;-54
2022/06/07 14:37:40;;;;;;;4.80;3.47;;;;;;;;;;4955607;29;20624;-54
2022/06/07 14:40:10;;;;;;;4.50;4.10;;;;;;;;;;4955664;29;20223;-54
2022/06/07 14:42:36;;;;;;;3.80;3.50;;;;;;;;;;4955525;29;20270;-54
2022/06/07 14:45:02;;;;;;;4.60;4.20;;;;;;;;;;4953615;29;20195;-54
2022/06/07 14:47:29;;;;;;;5.40;3.87;;;;;;;;;;4955242;29;20617;-54
2022/06/07 14:49:56;;;;;;;4.87;3.90;;;;;;;;;;4955694;29;20579;-55
2022/06/07 14:52:22;;;;;;;3.70;3.40;;;;;;;;;;4955341;29;20206;-54
2022/06/07 14:54:48;;;;;;;5.17;3.70;;;;;;;;;;4955502;29;20204;-54
2022/06/07 14:57:18;;;;;;;3.70;3.40;;;;;;;;;;4955313;28;20210;-54
2022/06/07 14:59:44;;;;;;;3.90;3.53;;;;;;;;;;4955090;29;20290;-54
2022/06/07 15:02:12;;;;;;;4.70;3.50;;;;;;;;;;4955207;29;20195;-54
2022/06/07 15:04:44;;;;;;;3.80;3.50;;;;;;;;;;4955267;29;20204;-54
2022/06/07 15:07:17;;;;;;;3.90;3.60;;;;;;;;;;4955044;29;20274;-54
2022/06/07 15:09:43;;;;;;;4.20;3.80;;;;;;;;;;4955309;29;20246;-55
2022/06/07 15:12:10;;;;;;;3.90;3.60;;;;;;;;;;4955049;29;20568;-54
2022/06/07 15:14:36;;;;;;;4.27;3.53;;;;;;;;;;4955020;29;20250;-54
2022/06/07 15:17:03;;;;;;;4.93;3.30;;;;;;;;;;4953266;28;20204;-54
2022/06/07 15:19:30;;;;;;;5.30;2.87;;;;;;;;;;4953816;28;20200;-54
2022/06/07 15:21:59;;;;;;;2.90;2.70;;;;;;;;;;4954895;29;20200;-54
2022/06/07 15:24:26;;;;;;;3.40;2.90;;;;;;;;;;4954988;28;20398;-54